Pagrindinis puslapis
METAR-TAF:

METAR-TAF

Oro uostai :

Kagoshima, Japonija

platuma: 31-48N, ilguma: 130-43E, Aukštis: 272 m

Dabartinis oras

Ataskaita buvo paskelbta 30 minutes, ne 04:00 UTC
Vėjas 10 kt iš Šiaurės
Temperatūra 10°C
Drėgmė 62%
Slėgis 1019 hPa
Matomumas: 6000 m
Mažai debesys ne aukštis 3000 ft
Išsisklaidę debesys ne aukštis 5000 ft

METAR: RJFK 200400Z 36010KT 6000 FEW030 SCT050 10/03 Q1019 RMK 1CU030 3SC050 A3010

Laikas: 13:30 (04:30 UTC)

Prognozė

Ataskaita buvo paskelbta 5 valandos ir 18 minutes, ne 23:12 UTC
Prognozė galioja nuo 20 metu 00 UTC su 21 metu 06 UTC
Vėjas 11 kt iš Šiaurės/Šiaurės Vakarų
Matomumas: 9000 m
Mažai debesys ne aukštis 3000 ft
Su prošvaistėmis ne aukštis 5000 ft
Tapsmas
nuo 21 metu 00 UTC su 21 metu 03 UTC
Vėjas 5 kt iš Pietryčių

TAF: RJFK 192312Z 2000/2106 33011KT 9000 FEW030 BKN050 BECMG 2100/2103 14005KT

Orai ataskaitas ir orų prognozės (METAR, TAF).

turimą stotys yra geltonos ir raudonos taškus žemėlapyje.

Perkelti pele per norėdami pamatyti stoties vardą.

Tada spustelėkite, norėdami matyti oro stebėjimo ir prognozės.

Norėdami pakeisti žemėlapį: spustelėkite ant žalios mygtukų su juodo kryžiaus žemyn,; žalią mygtuką su brūkšneliu, jei norite nutolinti; arba žalių rodyklių gretimoms žemėlapius.


METAR-TAF: